Flight Track Log - Related Links

Times and Time Zones

All times are in EDT time to prevent confusion due to time zone crossing. See the SWA3499 flight status page for this flight to view local times or setup timezone preferences in your user account.

Time Position Orientation Groundspeed Altitude Reporting Facility
EDT Latitude Longitude Course Direction KTS MPH feet Rate Location/Type
Sat 10:27:24 PM 33.6081 -117.8958 190° South 148 170 3,300  Level Los Angeles Center
Sat 10:28:26 PM 33.5472 -117.9122 193° South 220 253 5,600 3,073 Climbing Los Angeles Center
Sat 10:29:27 PM 33.4822 -117.9628 213° Southwest 268 308 9,600 3,317 Climbing Los Angeles Center
Sat 10:30:29 PM 33.4097 -118.0203 214° Southwest 297 342 12,400 2,927 Climbing Los Angeles Center
Sat 10:31:30 PM 33.3383 -118.0983 222° Southwest 349 402 15,600 3,246 Climbing Los Angeles Center
Sat 10:32:31 PM 33.3742 -118.2375 287° West 388 447 19,000 3,024 Climbing Los Angeles Center
Sat 10:33:33 PM 33.4844 -118.2811 342° North 417 480 21,800 2,585 Climbing Los Angeles Center
Sat 10:34:34 PM 33.6003 -118.3203 344° North 427 491 24,300 2,293 Climbing Los Angeles Center
Sat 10:35:36 PM 33.7156 -118.3575 345° North 459 528 26,500 2,226 Climbing Los Angeles Center
Sat 10:36:38 PM 33.8586 -118.4078 344° North 462 532 28,900 2,195 Climbing Los Angeles Center
Sat 10:37:39 PM 33.9850 -118.4575 342° North 474 545 31,000 2,115 Climbing Los Angeles Center
Sat 10:38:40 PM 34.1061 -118.5183 337° Northwest 475 547 33,200 2,016 Climbing Los Angeles Center
Sat 10:39:41 PM 34.2347 -118.5517 348° North 473 544 35,100 1,854 Climbing Los Angeles Center
Sat 10:40:43 PM 34.3631 -118.5803 350° North 472 543 37,000 1,659 Climbing Los Angeles Center
Sat 10:41:44 PM 34.4750 -118.6469 334° Northwest 451 519 38,500 1,463 Climbing Los Angeles Center
Sat 10:42:46 PM 34.5839 -118.7183 332° Northwest 444 511 40,000 732 Climbing Los Angeles Center
Sat 10:43:47 PM 34.6911 -118.7878 332° Northwest 440 506 40,000  Level Los Angeles Center
Sat 10:44:48 PM 34.8183 -118.8731 331° Northwest 438 504 40,000  Level Los Angeles Center
Sat 10:45:50 PM 34.9058 -118.9636 320° Northwest 422 486 40,000  Level Los Angeles Center
Sat 10:46:51 PM 34.9986 -119.0519 322° Northwest 423 487 40,000  Level Los Angeles Center
Sat 10:47:52 PM 35.0917 -119.1408 322° Northwest 425 489 40,000  Level Los Angeles Center
Sat 10:48:54 PM 35.1831 -119.2306 321° Northwest 426 490 40,000  Level Los Angeles Center
Sat 10:49:55 PM 35.2761 -119.3217 321° Northwest 429 494 40,000  Level Los Angeles Center
Sat 10:50:56 PM 35.3681 -119.4136 321° Northwest 428 493 40,000  Level Los Angeles Center
Sat 10:51:58 PM 35.4606 -119.5050 321° Northwest 429 494 40,000  Level Los Angeles Center
Sat 10:52:59 PM 35.5525 -119.5964 321° Northwest 429 494 40,000  Level Los Angeles Center
Sat 10:54:00 PM 35.6642 -119.7078 321° Northwest 431 496 40,000  Level Los Angeles Center
Sat 10:55:02 PM 35.7567 -119.8008 321° Northwest 433 498 40,000  Level Los Angeles Center
Sat 10:56:03 PM 35.8489 -119.8936 321° Northwest 432 497 40,000  Level Los Angeles Center
Sat 10:57:05 PM 35.9419 -119.9886 320° Northwest 435 501 40,000  Level Los Angeles Center
Sat 10:58:09 PM 36.0511 -120.0975 321° Northwest 431 496 40,000 -48 Level Oakland Center
Sat 10:59:10 PM 36.1439 -120.1925 320° Northwest 434 499 39,900 -541 Descending Oakland Center
Sat 11:00:11 PM 36.2372 -120.2889 320° Northwest 438 504 38,900 -984 Descending Oakland Center
Sat 11:01:12 PM 36.3325 -120.3842 321° Northwest 443 510 37,900 -1,240 Descending Oakland Center
Sat 11:02:12 PM 36.4272 -120.4814 320° Northwest 443 510 36,400 -2,380 Descending Oakland Center
Sat 11:03:13 PM 36.5211 -120.5811 320° Northwest 446 513 33,100 -3,197 Descending Oakland Center
Sat 11:04:14 PM 36.6183 -120.6772 322° Northwest 449 517 29,900 -2,852 Descending Oakland Center
Sat 11:05:15 PM 36.7108 -120.7753 320° Northwest 440 506 27,300 -2,557 Descending Oakland Center
Sat 11:06:16 PM 36.7953 -120.8742 317° Northwest 422 486 24,700 -2,607 Descending Oakland Center
Sat 11:07:17 PM 36.8839 -120.9742 318° Northwest 404 465 22,000 -2,508 Descending Oakland Center
Sat 11:08:18 PM 36.9639 -121.0658 318° Northwest 392 451 19,600 -2,410 Descending Oakland Center
Sat 11:09:19 PM 37.0483 -121.1628 318° Northwest 378 435 17,100 -2,213 Descending Oakland Center
Sat 11:10:20 PM 37.1156 -121.2411 317° Northwest 367 422 15,100 -2,231 Descending Oakland Center
Sat 11:11:20 PM 37.1886 -121.3247 318° Northwest 357 411 12,600 -2,331 Descending Oakland Center
Sat 11:12:21 PM 37.2594 -121.4061 318° Northwest 347 399 10,400 -1,475 Descending Oakland Center
Sat 11:13:22 PM 37.3242 -121.4819 317° Northwest 320 368 9,600 -934 Descending Oakland Center
Sat 11:14:23 PM 37.3886 -121.5569 317° Northwest 297 342 8,500 -1,052 Descending Oakland Center
Sat 11:14:59 PM 37.4333 -121.6000 323° Northwest 286 329 7,900 -938 Descending Northern Cal TRACON
Sat 11:15:59 PM 37.4833 -121.6667 313° West 284 327 7,000 -950 Descending Northern Cal TRACON
Sat 11:16:59 PM 37.5333 -121.7500 307° West 279 321 6,000 -950 Descending Northern Cal TRACON
Sat 11:17:59 PM 37.5500 -121.8333 284° West 268 308 5,100 -750 Descending Northern Cal TRACON
Sat 11:18:59 PM 37.5500 -121.9333 270° West 265 305 4,500 -605 Descending Northern Cal TRACON
Sat 11:19:58 PM 37.5667 -122.0167 284° West 244 281 3,900 -800 Descending Northern Cal TRACON
Sat 11:20:59 PM 37.6000 -122.0667 310° West 194 223 2,900 -942 Descending Northern Cal TRACON
Sat 11:21:59 PM 37.6333 -122.1167 310° West 156 180 2,000 -800 Descending Northern Cal TRACON
Sat 11:22:59 PM 37.6667 -122.1500 322° Northwest 133 153 1,300 -700 Descending Northern Cal TRACON
Sat 11:23:59 PM 37.6833 -122.1833 302° West 127 146 600 7,286 Descending Northern Cal TRACON
Sat 11:25:33 PM 37.7106 -122.2286 307° West 106 122 20,000 12,383 Climbing Oakland Center
Sat 11:27:00 PM 37.7167 -122.2167 270° West  Level FlightAware Approximate

Login

Don't have an account? Register now (free) for customized features, flight alerts, and more!